.
WxDataArchive / Data Records for 2011-12-18
2011-12-17 December 2011 2011-12-19

Data Records for Sunday, 18 December 2011

Time	Temp	Chill	HIndex	Humid	Dewpt	 Wind 	HiWind	WindDir	Rain 	Barom 
-----	----	-----	------	-----	-----	------	------	-------	-----	----- 
00:00	31.8	31.8	31.8	83	27.2	1	3	270	0.00	30.214 
00:05	31.8	31.8	31.8	83	27.2	1	3	270	0.00	30.214 
00:10	31.8	31.8	31.8	83	27.2	0	2	270	0.00	30.214 
00:15	31.9	31.9	31.9	82	27.0	2	7	270	0.00	30.213 
00:20	31.9	31.9	31.9	82	27.0	1	3	270	0.00	30.213 
00:25	31.9	31.9	31.9	82	27.0	2	5	270	0.00	30.213 
00:30	31.9	31.9	31.9	81	26.7	1	4	270	0.00	30.209 
00:35	31.9	31.9	31.9	81	26.7	1	4	270	0.00	30.209 
00:40	31.9	31.9	31.9	81	26.7	1	3	270	0.00	30.209 
00:45	31.9	31.9	31.9	81	26.7	1	2	248	0.00	30.203 
00:50	31.9	31.9	31.9	82	27.0	0	3	248	0.00	30.203 
00:55	31.9	31.9	31.9	82	27.0	1	3	248	0.00	30.203 
01:00	31.9	31.9	31.9	82	27.0	0	3	248	0.00	30.201 
01:05	31.9	31.9	31.9	82	27.0	0	2	248	0.00	30.201 
01:10	31.9	31.9	31.9	82	27.0	0	1	248	0.00	30.201 
01:15	31.9	31.9	31.9	82	27.0	0	2	248	0.00	30.196 
01:20	31.9	31.9	31.9	83	27.3	0	1	248	0.00	30.196 
01:25	31.9	31.9	31.9	83	27.3	0	1	248	0.00	30.196 
01:30	31.8	31.8	31.8	83	27.2	0	2	248	0.00	30.194 
01:35	31.8	31.8	31.8	83	27.2	1	3	248	0.00	30.194 
01:40	31.8	31.8	31.8	83	27.2	0	1	248	0.00	30.194 
01:45	31.8	31.8	31.8	84	27.5	0	1	248	0.00	30.192 
01:50	31.8	31.8	31.8	84	27.5	0	2	248	0.00	30.192 
01:55	31.8	31.8	31.8	84	27.5	0	2	248	0.00	30.192 
02:00	31.9	31.9	31.9	84	27.6	0	1	248	0.00	30.194 
02:05	31.9	31.9	31.9	84	27.6	0	1	248	0.00	30.194 
02:10	31.9	31.9	31.9	84	27.6	0	3	248	0.00	30.194 
02:15	31.9	31.9	31.9	84	27.6	0	2	248	0.00	30.193 
02:20	31.9	31.9	31.9	84	27.6	0	2	248	0.00	30.193 
02:25	31.9	31.9	31.9	84	27.6	0	3	248	0.00	30.193 
02:30	31.9	31.9	31.9	84	27.6	0	1	248	0.00	30.197 
02:35	31.9	31.9	31.9	84	27.6	0	2	248	0.00	30.197 
02:40	31.9	31.9	31.9	84	27.6	0	3	248	0.00	30.197 
02:45	31.9	31.9	31.9	84	27.6	0	1	248	0.00	30.204 
02:50	31.9	31.9	31.9	84	27.6	1	3	248	0.00	30.204 
02:55	31.9	31.9	31.9	84	27.6	1	3	248	0.00	30.204 
03:00	31.9	31.9	31.9	84	27.6	1	3	248	0.00	30.212 
03:05	31.9	31.9	31.9	84	27.6	1	3	248	0.00	30.212 
03:10	31.9	31.9	31.9	84	27.6	0	2	248	0.00	30.212 
03:15	31.9	31.9	31.9	84	27.6	1	3	248	0.00	30.211 
03:20	31.9	31.9	31.9	84	27.6	0	2	248	0.00	30.211 
03:25	31.9	31.9	31.9	84	27.6	0	3	248	0.00	30.211 
03:30	31.9	31.9	31.9	84	27.6	0	2	248	0.00	30.214 
03:35	31.8	31.8	31.8	84	27.5	0	2	248	0.00	30.214 
03:40	31.8	31.8	31.8	84	27.5	1	3	248	0.00	30.214 
03:45	31.8	31.8	31.8	84	27.5	1	3	248	0.00	30.213 
03:50	31.8	31.8	31.8	84	27.5	0	3	248	0.00	30.213 
03:55	31.8	31.8	31.8	84	27.5	1	3	248	0.00	30.213 
04:00	31.8	31.8	31.8	84	27.5	1	3	248	0.00	30.213 
04:05	31.8	31.8	31.8	84	27.5	1	3	248	0.00	30.213 
04:10	31.6	31.6	31.6	84	27.3	0	3	248	0.00	30.213 
04:15	31.6	31.6	31.6	84	27.3	1	3	248	0.00	30.214 
04:20	31.6	31.6	31.6	84	27.3	1	4	248	0.00	30.214 
04:25	31.6	31.6	31.6	84	27.3	1	3	248	0.00	30.214 
04:30	31.6	31.6	31.6	84	27.3	0	3	248	0.00	30.215 
04:35	31.6	31.6	31.6	84	27.3	0	1	248	0.00	30.215 
04:40	31.6	31.6	31.6	84	27.3	1	3	248	0.00	30.215 
04:45	31.6	31.6	31.6	84	27.3	1	3	248	0.00	30.213 
04:50	31.6	31.6	31.6	84	27.3	1	3	248	0.00	30.213 
04:55	31.6	31.6	31.6	84	27.3	0	2	248	0.00	30.213 
05:00	31.5	31.5	31.5	84	27.2	0	2	248	0.00	30.201 
05:05	31.5	31.5	31.5	84	27.2	0	0	---	0.00	30.201 
05:10	31.3	31.3	31.3	84	27.0	0	1	248	0.00	30.201 
05:15	31.3	31.3	31.3	84	27.0	0	1	248	0.00	30.201 
05:20	31.2	31.2	31.2	85	27.2	1	3	248	0.00	30.201 
05:25	31.2	31.2	31.2	85	27.2	0	3	248	0.00	30.201 
05:30	31.2	31.2	31.2	85	27.2	0	3	248	0.00	30.207 
05:35	31.2	31.2	31.2	85	27.2	0	2	248	0.00	30.207 
05:40	31.0	31.0	31.0	85	27.0	0	3	248	0.00	30.207 
05:45	31.0	31.0	31.0	86	27.3	0	2	248	0.00	30.215 
05:50	31.0	31.0	31.0	86	27.3	0	1	248	0.00	30.215 
05:55	31.0	31.0	31.0	86	27.3	0	3	248	0.00	30.215 
06:00	31.2	31.2	31.2	86	27.5	1	3	248	0.00	30.225 
06:05	31.2	31.2	31.2	86	27.5	1	2	248	0.00	30.225 
06:10	31.2	31.2	31.2	86	27.5	0	3	248	0.00	30.225 
06:15	31.0	31.0	31.0	86	27.3	0	2	248	0.00	30.220 
06:20	30.9	30.9	30.9	86	27.2	0	2	248	0.00	30.220 
06:25	30.7	30.7	30.7	86	27.0	0	1	248	0.00	30.220 
06:30	30.6	30.6	30.6	86	26.9	0	2	248	0.00	30.224 
06:35	30.6	30.6	30.6	86	26.9	0	2	248	0.00	30.224 
06:40	30.4	30.4	30.4	86	26.7	0	3	248	0.00	30.224 
06:45	30.3	30.3	30.3	87	26.9	0	3	248	0.00	30.224 
06:50	30.1	30.1	30.1	87	26.7	0	2	248	0.00	30.224 
06:55	30.0	30.0	30.0	87	26.6	0	1	248	0.00	30.224 
07:00	30.0	30.0	30.0	87	26.6	0	2	248	0.00	30.230 
07:05	30.0	30.0	30.0	87	26.6	1	3	248	0.00	30.230 
07:10	30.0	30.0	30.0	88	26.9	1	2	248	0.00	30.230 
07:15	30.0	30.0	30.0	88	26.9	1	3	248	0.00	30.232 
07:20	30.0	30.0	30.0	88	26.9	1	3	248	0.00	30.232 
07:25	30.1	30.1	30.1	88	27.0	1	3	248	0.00	30.232 
07:30	30.1	30.1	30.1	88	27.0	1	4	248	0.00	30.236 
07:35	30.1	30.1	30.1	88	27.0	0	1	248	0.00	30.236 
07:40	30.1	30.1	30.1	88	27.0	0	2	248	0.00	30.236 
07:45	30.0	30.0	30.0	88	26.9	0	2	248	0.00	30.242 
07:50	29.8	29.8	29.8	88	26.7	0	1	248	0.00	30.242 
07:55	29.7	29.7	29.7	88	26.6	0	1	248	0.00	30.242 
08:00	29.7	29.7	29.7	88	26.6	0	2	248	0.00	30.250 
08:05	29.5	29.5	29.5	88	26.4	0	2	248	0.00	30.250 
08:10	29.5	29.5	29.5	89	26.7	0	1	248	0.00	30.250 
08:15	29.4	29.4	29.4	89	26.6	0	1	248	0.00	30.259 
08:20	29.4	29.4	29.4	89	26.6	0	1	248	0.00	30.259 
08:25	29.3	29.3	29.3	89	26.5	0	1	248	0.00	30.259 
08:30	29.3	29.3	29.3	89	26.5	0	1	248	0.00	30.258 
08:35	29.3	29.3	29.3	89	26.5	0	2	248	0.00	30.258 
08:40	29.3	29.3	29.3	89	26.5	0	1	248	0.00	30.258 
08:45	29.3	29.3	29.3	89	26.5	0	2	248	0.00	30.256 
08:50	29.4	29.4	29.4	90	26.8	0	1	248	0.00	30.256 
08:55	29.4	29.4	29.4	90	26.8	1	3	248	0.00	30.256 
09:00	29.5	29.5	29.5	90	26.9	0	3	248	0.00	30.260 
09:05	29.5	29.5	29.5	90	26.9	0	1	248	0.00	30.260 
09:10	29.7	29.7	29.7	90	27.1	0	2	248	0.00	30.260 
09:15	29.8	29.8	29.8	90	27.2	0	3	248	0.00	30.263 
09:20	30.0	30.0	30.0	90	27.4	1	4	248	0.00	30.263 
09:25	30.1	30.1	30.1	90	27.5	1	4	248	0.00	30.263 
09:30	30.1	30.1	30.1	90	27.5	0	3	248	0.00	30.263 
09:35	30.4	30.4	30.4	90	27.8	0	2	248	0.00	30.263 
09:40	30.6	30.6	30.6	90	28.0	0	2	248	0.00	30.263 
09:45	30.7	30.7	30.7	90	28.1	0	1	248	0.00	30.261 
09:50	30.9	30.9	30.9	90	28.3	0	1	248	0.00	30.261 
09:55	31.0	31.0	31.0	89	28.1	0	2	248	0.00	30.261 
10:00	31.2	31.2	31.2	89	28.3	0	3	248	0.00	30.264 
10:05	31.3	31.3	31.3	89	28.4	0	3	248	0.00	30.264 
10:10	31.5	31.5	31.5	88	28.4	0	2	248	0.00	30.264 
10:15	31.5	31.5	31.5	88	28.4	0	3	248	0.00	30.265 
10:20	31.8	31.8	31.8	88	28.7	0	2	248	0.00	30.265 
10:25	31.8	31.8	31.8	88	28.7	1	4	248	0.00	30.265 
10:30	31.9	31.9	31.9	87	28.5	0	2	248	0.00	30.264 
10:35	32.1	32.1	32.1	86	28.4	1	3	248	0.00	30.264 
10:40	32.2	32.2	32.2	86	28.5	0	2	248	0.00	30.264 
10:45	32.4	32.4	32.4	86	28.7	0	2	248	0.00	30.265 
10:50	32.5	32.5	32.5	85	28.5	0	2	248	0.00	30.265 
10:55	32.8	32.8	32.8	85	28.8	0	2	248	0.00	30.265 
11:00	32.9	32.9	32.9	85	28.9	0	3	248	0.00	30.259 
11:05	32.9	32.9	32.9	84	28.6	1	3	248	0.00	30.259 
11:10	33.2	33.2	33.2	84	28.9	0	2	248	0.00	30.259 
11:15	33.5	33.5	33.5	84	29.2	0	3	248	0.00	30.256 
11:20	33.7	33.7	33.7	83	29.1	1	3	225	0.00	30.256 
11:25	33.8	33.8	33.8	82	28.9	0	3	225	0.00	30.256 
11:30	33.8	33.8	33.8	81	28.6	0	3	248	0.00	30.251 
11:35	34.0	34.0	34.0	81	28.8	0	2	248	0.00	30.251 
11:40	34.0	34.0	34.0	81	28.8	0	3	90	0.00	30.251 
11:45	34.1	34.1	34.1	81	28.9	0	2	90	0.00	30.242 
11:50	34.4	34.4	34.4	81	29.2	1	3	90	0.00	30.242 
11:55	34.4	34.4	34.4	79	28.6	1	4	248	0.00	30.242 
12:00	34.7	34.7	34.7	78	28.6	1	4	248	0.00	30.242 
12:05	34.6	34.6	34.6	77	28.1	2	5	248	0.00	30.242 
12:10	34.4	34.4	34.4	77	27.9	1	4	248	0.00	30.242 
12:15	34.3	34.3	34.3	77	27.9	1	4	248	0.00	30.247 
12:20	34.4	34.4	34.4	78	28.3	0	2	270	0.00	30.247 
12:25	34.6	34.6	34.6	78	28.5	1	5	225	0.00	30.247 
12:30	34.9	34.9	34.9	78	28.7	1	3	248	0.00	30.242 
12:35	35.0	35.0	35.0	77	28.5	1	5	248	0.00	30.242 
12:40	34.9	34.9	34.9	76	28.1	2	7	248	0.00	30.242 
12:45	35.0	35.0	35.0	76	28.2	2	6	248	0.00	30.242 
12:50	35.2	35.2	35.2	75	28.1	2	5	248	0.00	30.242 
12:55	35.0	35.0	35.0	75	27.9	2	6	248	0.00	30.242 
13:00	35.0	35.0	35.0	76	28.2	1	4	248	0.00	30.243 
13:05	35.3	35.3	35.3	76	28.5	2	6	248	0.00	30.243 
13:10	35.6	35.6	35.6	75	28.5	2	5	248	0.00	30.243 
13:15	35.6	35.6	35.6	76	28.8	1	4	248	0.00	30.232 
13:20	35.6	35.6	35.6	76	28.8	0	2	248	0.00	30.232 
13:25	35.9	35.9	35.9	75	28.8	1	5	248	0.00	30.232 
13:30	36.2	36.2	36.2	74	28.7	1	3	248	0.00	30.223 
13:35	36.5	36.5	36.5	74	29.0	1	4	270	0.00	30.223 
13:40	36.8	36.8	36.8	74	29.3	1	3	45	0.00	30.223 
13:45	36.8	36.8	36.8	74	29.3	1	4	270	0.00	30.215 
13:50	36.9	36.9	36.9	73	29.1	1	4	270	0.00	30.215 
13:55	37.0	37.0	37.0	72	28.8	1	4	248	0.00	30.215 
14:00	37.0	37.0	37.0	72	28.8	0	2	248	0.00	30.208 
14:05	37.3	37.3	37.3	72	29.1	1	3	248	0.00	30.208 
14:10	37.5	37.5	37.5	72	29.3	0	2	248	0.00	30.208 
14:15	37.8	37.8	37.8	70	28.9	1	3	248	0.00	30.203 
14:20	37.9	37.9	37.9	69	28.7	1	3	248	0.00	30.203 
14:25	37.9	37.9	37.9	69	28.7	1	4	248	0.00	30.203 
14:30	38.0	38.0	38.0	69	28.7	1	3	270	0.00	30.191 
14:35	38.0	38.0	38.0	67	28.0	1	5	248	0.00	30.191 
14:40	38.3	38.3	38.3	70	29.4	0	3	248	0.00	30.191 
14:45	38.3	38.3	38.3	69	29.0	0	2	135	0.00	30.180 
14:50	38.5	38.5	38.5	68	28.9	1	4	248	0.00	30.180 
14:55	38.6	38.6	38.6	68	29.0	0	3	338	0.00	30.180 
15:00	38.8	38.8	38.8	67	28.8	0	2	22	0.00	30.172 
15:05	38.9	38.9	38.9	68	29.3	1	5	90	0.00	30.172 
15:10	38.8	38.8	38.8	68	29.2	1	4	248	0.00	30.172 
15:15	38.8	38.8	38.8	68	29.2	1	3	68	0.00	30.165 
15:20	38.6	38.6	38.6	67	28.6	0	2	270	0.00	30.165 
15:25	38.8	38.8	38.8	67	28.8	1	4	270	0.00	30.165 
15:30	38.9	38.9	38.9	67	28.9	1	3	248	0.00	30.159 
15:35	39.2	39.2	39.2	65	28.4	2	6	248	0.00	30.159 
15:40	39.3	39.3	39.3	66	28.9	1	4	248	0.00	30.159 
15:45	39.3	39.3	39.3	66	28.9	0	3	248	0.00	30.157 
15:50	39.3	39.3	39.3	66	28.9	1	4	90	0.00	30.157 
15:55	39.3	39.3	39.3	66	28.9	1	3	225	0.00	30.157 
16:00	39.2	39.2	39.2	65	28.4	1	5	90	0.00	30.145 
16:05	39.1	39.1	39.1	67	29.1	1	3	90	0.00	30.145 
16:10	39.1	39.1	39.1	67	29.1	1	3	90	0.00	30.145 
16:15	39.1	39.1	39.1	68	29.4	0	3	112	0.00	30.147 
16:20	38.9	38.9	38.9	69	29.6	0	1	112	0.00	30.147 
16:25	38.8	38.8	38.8	69	29.5	0	2	112	0.00	30.147 
16:30	38.8	38.8	38.8	68	29.2	0	1	112	0.00	30.143 
16:35	38.8	38.8	38.8	68	29.2	1	3	248	0.00	30.143 
16:40	38.8	38.8	38.8	68	29.2	0	2	248	0.00	30.143 
16:45	38.8	38.8	38.8	67	28.8	0	2	248	0.00	30.148 
16:50	38.8	38.8	38.8	67	28.8	0	2	248	0.00	30.148 
16:55	38.5	38.5	38.5	68	28.9	0	2	248	0.00	30.148 
17:00	38.3	38.3	38.3	68	28.7	0	1	248	0.00	30.143 
17:05	38.0	38.0	38.0	69	28.7	0	1	248	0.00	30.143 
17:10	37.8	37.8	37.8	69	28.6	0	0	---	0.00	30.143 
17:15	37.5	37.5	37.5	69	28.3	0	0	---	0.00	30.145 
17:20	37.2	37.2	37.2	70	28.3	0	0	---	0.00	30.145 
17:25	36.9	36.9	36.9	70	28.0	0	0	---	0.00	30.145 
17:30	36.6	36.6	36.6	71	28.1	0	0	---	0.00	30.145 
17:35	36.3	36.3	36.3	72	28.2	0	0	---	0.00	30.145 
17:40	36.0	36.0	36.0	72	27.9	0	0	---	0.00	30.145 
17:45	35.8	35.8	35.8	73	28.0	0	0	---	0.00	30.146 
17:50	35.6	35.6	35.6	73	27.8	0	0	---	0.00	30.146 
17:55	35.6	35.6	35.6	74	28.1	0	0	---	0.00	30.146 
18:00	35.6	35.6	35.6	74	28.1	0	0	---	0.00	30.140 
18:05	35.5	35.5	35.5	75	28.4	0	0	---	0.00	30.140 
18:10	35.3	35.3	35.3	75	28.2	0	0	---	0.00	30.140 
18:15	35.0	35.0	35.0	76	28.2	0	0	---	0.00	30.138 
18:20	35.0	35.0	35.0	76	28.2	0	0	---	0.00	30.138 
18:25	34.9	34.9	34.9	77	28.4	0	0	---	0.00	30.138 
18:30	34.9	34.9	34.9	77	28.4	0	0	---	0.00	30.136 
18:35	34.9	34.9	34.9	77	28.4	0	0	---	0.00	30.136 
18:40	34.9	34.9	34.9	77	28.4	0	1	248	0.00	30.136 
18:45	34.9	34.9	34.9	78	28.7	0	0	---	0.00	30.132 
18:50	34.9	34.9	34.9	78	28.7	0	0	---	0.00	30.132 
18:55	34.7	34.7	34.7	78	28.6	0	0	---	0.00	30.132 
19:00	34.7	34.7	34.7	78	28.6	0	0	---	0.00	30.128 
19:05	34.7	34.7	34.7	79	28.9	0	1	248	0.00	30.128 
19:10	34.6	34.6	34.6	79	28.8	0	1	248	0.00	30.128 
19:15	34.6	34.6	34.6	79	28.8	0	1	248	0.00	30.123 
19:20	34.7	34.7	34.7	79	28.9	0	1	248	0.00	30.123 
19:25	34.7	34.7	34.7	79	28.9	0	1	248	0.00	30.123 
19:30	34.9	34.9	34.9	80	29.4	0	2	248	0.00	30.117 
19:35	35.0	35.0	35.0	80	29.5	0	1	248	0.00	30.117 
19:40	35.3	35.3	35.3	80	29.8	0	2	248	0.00	30.117 
19:45	35.5	35.5	35.5	81	30.3	0	2	248	0.00	30.110 
19:50	35.9	35.9	35.9	80	30.3	0	2	248	0.00	30.110 
19:55	36.0	36.0	36.0	80	30.4	0	1	248	0.00	30.110 
20:00	36.0	36.0	36.0	80	30.4	0	2	248	0.00	30.100 
20:05	36.0	36.0	36.0	80	30.4	0	2	248	0.00	30.100 
20:10	36.0	36.0	36.0	80	30.4	0	1	248	0.00	30.100 
20:15	36.0	36.0	36.0	80	30.4	0	1	248	0.00	30.098 
20:20	35.9	35.9	35.9	80	30.3	0	2	248	0.00	30.098 
20:25	36.0	36.0	36.0	81	30.7	0	1	248	0.00	30.098 
20:30	36.0	36.0	36.0	81	30.7	0	3	248	0.00	30.094 
20:35	36.2	36.2	36.2	81	30.9	0	1	248	0.00	30.094 
20:40	36.2	36.2	36.2	80	30.6	0	1	248	0.00	30.094 
20:45	36.2	36.2	36.2	81	30.9	0	2	248	0.00	30.084 
20:50	36.3	36.3	36.3	81	31.0	0	3	248	0.00	30.084 
20:55	36.5	36.5	36.5	77	30.0	1	4	248	0.00	30.084 
21:00	36.6	36.6	36.6	80	31.0	0	4	248	0.00	30.082 
21:05	36.8	36.8	36.8	80	31.2	0	3	248	0.00	30.082 
21:10	36.9	36.9	36.9	80	31.3	1	3	248	0.00	30.082 
21:15	37.0	37.0	37.0	79	31.1	0	3	248	0.00	30.079 
21:20	37.0	37.0	37.0	79	31.1	1	2	248	0.00	30.079 
21:25	37.2	37.2	37.2	79	31.3	0	2	248	0.00	30.079 
21:30	37.2	37.2	37.2	78	31.0	1	2	270	0.00	30.070 
21:35	37.2	37.2	37.2	78	31.0	0	2	270	0.00	30.070 
21:40	37.2	37.2	37.2	78	31.0	0	2	270	0.00	30.070 
21:45	37.2	37.2	37.2	78	31.0	1	4	270	0.00	30.066 
21:50	37.3	37.3	37.3	78	31.1	1	4	248	0.00	30.066 
21:55	37.6	37.6	37.6	77	31.1	1	6	270	0.00	30.066 
22:00	37.6	37.6	37.6	77	31.1	1	6	248	0.00	30.061 
22:05	37.6	37.6	37.6	77	31.1	1	3	248	0.00	30.061 
22:10	37.8	37.8	37.8	77	31.2	1	4	248	0.00	30.061 
22:15	37.9	37.9	37.9	76	31.0	1	5	248	0.00	30.050 
22:20	38.0	38.0	38.0	76	31.1	1	3	248	0.00	30.050 
22:25	38.0	38.0	38.0	76	31.1	1	5	270	0.00	30.050 
22:30	38.0	38.0	38.0	76	31.1	0	5	270	0.00	30.049 
22:35	37.9	37.9	37.9	76	31.0	0	2	270	0.00	30.049 
22:40	37.9	37.9	37.9	76	31.0	1	3	270	0.00	30.049 
22:45	37.9	37.9	37.9	76	31.0	1	3	248	0.00	30.044 
22:50	38.0	38.0	38.0	76	31.1	1	3	292	0.00	30.044 
22:55	38.2	38.2	38.2	76	31.3	1	5	248	0.00	30.044 
23:00	38.2	38.2	38.2	76	31.3	1	4	248	0.00	30.040 
23:05	38.2	38.2	38.2	76	31.3	1	3	248	0.00	30.040 
23:10	38.3	38.3	38.3	76	31.4	2	5	248	0.00	30.040 
23:15	38.5	38.5	38.5	76	31.6	1	4	248	0.00	30.032 
23:20	38.5	38.5	38.5	76	31.6	1	4	248	0.00	30.032 
23:25	38.5	38.5	38.5	76	31.6	1	5	248	0.00	30.032 
23:30	38.6	38.6	38.6	76	31.7	1	6	248	0.00	30.030 
23:35	38.6	38.6	38.6	76	31.7	1	7	225	0.00	30.030 
23:40	38.6	38.6	38.6	76	31.7	1	4	248	0.00	30.030 
23:45	38.6	38.6	38.6	76	31.7	1	5	248	0.00	30.029 
23:50	38.6	38.6	38.6	76	31.7	2	5	225	0.00	30.029 
23:55	38.6	38.6	38.6	76	31.7	2	5	248	0.00	30.029 

CoCoRaHS
IN-AL-39
A2 Web Hosting
Creative Commons License
GoDaddy
search engine by freefind advanced

loaded 2018-11-21 01:04:51 • last modified 2010-11-18 10:43:29
Privacy PolicyDisclaimer
• wx.awcolley.com is powered by PmWiki v.2002016 •
• all content (unless otherwise noted) © 2018 A W Colley